Time;durP1;ratioP1;P1;durP2;ratioP2;P2;SDS_P1;SDS_P2;PMS_P1;PMS_P2;Temp;Humidity;BMP_temperature;BMP_pressure;BME280_temperature;BME280_humidity;BME280_pressure;Samples;Min_cycle;Max_cycle;Signal;HPM_P1;HPM_P2
2022/03/18 00:00:23;;;;;;;11.90;5.20;;;;;;;3.51;89.65;103783.84;5285091;28;20440;-68
2022/03/18 00:02:54;;;;;;;13.50;5.72;;;;;;;3.50;89.12;103783.00;5285254;28;20073;-67
2022/03/18 00:05:26;;;;;;;10.27;5.55;;;;;;;3.44;89.79;103783.03;5280455;28;20036;-68
2022/03/18 00:07:57;;;;;;;10.27;5.50;;;;;;;3.40;89.75;103789.13;5285782;28;20028;-68
2022/03/18 00:10:29;;;;;;;7.07;4.30;;;;;;;3.47;91.53;103803.75;5286928;28;20110;-67
2022/03/18 00:13:00;;;;;;;8.65;4.43;;;;;;;3.29;91.34;103802.16;5284307;28;20024;-68
2022/03/18 00:15:32;;;;;;;11.48;4.78;;;;;;;3.29;89.22;103804.75;5286783;28;20047;-68
2022/03/18 00:18:03;;;;;;;9.57;4.88;;;;;;;3.31;89.52;103804.75;5288469;28;20028;-68
2022/03/18 00:20:34;;;;;;;7.95;4.80;;;;;;;3.16;89.69;103803.97;5284865;28;20291;-68
2022/03/18 00:23:05;;;;;;;9.90;4.90;;;;;;;3.07;90.34;103810.91;5285473;28;20413;-68
2022/03/18 00:25:37;;;;;;;11.50;5.28;;;;;;;3.02;90.42;103804.91;5286866;28;20032;-68
2022/03/18 00:28:08;;;;;;;9.55;4.82;;;;;;;2.95;90.95;103811.00;5282081;28;20090;-68
2022/03/18 00:30:39;;;;;;;9.95;4.82;;;;;;;2.86;90.24;103805.00;5281186;28;20024;-68
2022/03/18 00:33:11;;;;;;;10.02;4.80;;;;;;;2.89;91.96;103801.53;5280081;28;20016;-68
2022/03/18 00:35:42;;;;;;;9.50;5.15;;;;;;;2.81;90.83;103795.56;5284036;28;20079;-68
2022/03/18 00:38:13;;;;;;;9.27;4.93;;;;;;;2.82;93.60;103805.03;5288614;28;20417;-67
2022/03/18 00:40:45;;;;;;;9.82;5.57;;;;;;;2.80;93.08;103807.59;5280572;28;20039;-68
2022/03/18 00:43:16;;;;;;;11.02;5.10;;;;;;;2.80;94.29;103811.94;5282728;28;20047;-67
2022/03/18 00:45:48;;;;;;;7.18;4.28;;;;;;;2.78;93.61;103816.25;5285622;28;20020;-68
2022/03/18 00:53:59;;;;;;;11.27;4.40;;;;;;;2.71;93.02;103828.38;5286410;28;20024;-68
2022/03/18 00:56:31;;;;;;;8.73;4.93;;;;;;;2.65;94.30;103825.78;5284370;28;20167;-67
2022/03/18 00:59:02;;;;;;;9.23;4.88;;;;;;;2.64;94.42;103827.53;5284374;28;20048;-68
2022/03/18 01:01:33;;;;;;;9.55;5.25;;;;;;;2.54;94.27;103830.16;5284698;28;20108;-68
2022/03/18 01:04:05;;;;;;;10.15;4.95;;;;;;;2.62;93.96;103834.44;5280630;28;20032;-67
2022/03/18 01:06:36;;;;;;;8.52;4.50;;;;;;;2.54;94.45;103843.97;5283908;28;20028;-68
2022/03/18 01:09:07;;;;;;;9.00;4.55;;;;;;;2.57;93.50;103845.66;5285119;28;20020;-68
2022/03/18 01:11:39;;;;;;;7.78;4.80;;;;;;;2.48;92.28;103846.56;5285269;28;20319;-68
2022/03/18 01:14:10;;;;;;;6.68;4.50;;;;;;;2.30;93.25;103850.03;5287001;28;20545;-68
2022/03/18 01:16:42;;;;;;;10.45;5.10;;;;;;;2.19;94.11;103852.66;5285919;28;20439;-67
2022/03/18 01:19:13;;;;;;;10.65;4.78;;;;;;;2.11;95.98;103844.03;5283724;28;20025;-68
2022/03/18 01:21:44;;;;;;;8.40;4.53;;;;;;;2.05;97.58;103846.66;5284863;28;20464;-68
2022/03/18 01:24:16;;;;;;;10.00;4.97;;;;;;;2.01;99.02;103850.09;5286002;28;20039;-68
2022/03/18 01:26:47;;;;;;;9.15;4.20;;;;;;;2.03;97.05;103850.09;5284762;28;20070;-68
2022/03/18 01:29:19;;;;;;;7.72;4.50;;;;;;;2.00;96.58;103848.34;5289329;28;20388;-68
2022/03/18 01:31:50;;;;;;;7.68;5.18;;;;;;;1.97;96.85;103840.63;5290374;28;20503;-67
2022/03/18 01:34:21;;;;;;;13.57;4.95;;;;;;;1.98;97.73;103832.00;5288399;28;20144;-68
2022/03/18 01:36:53;;;;;;;12.32;5.22;;;;;;;1.95;97.74;103839.75;5288242;28;20039;-67
2022/03/18 01:39:24;;;;;;;9.50;5.00;;;;;;;1.94;97.45;103844.06;5291034;28;20097;-68
2022/03/18 01:41:55;;;;;;;12.40;5.15;;;;;;;1.95;96.03;103839.75;5289923;28;20024;-66
2022/03/18 01:44:26;;;;;;;9.40;4.60;;;;;;;1.94;95.60;103832.88;5286433;28;20028;-67
2022/03/18 01:46:58;;;;;;;10.20;5.18;;;;;;;1.96;97.20;103841.47;5287721;28;20443;-68
2022/03/18 01:49:29;;;;;;;10.70;4.50;;;;;;;1.94;97.80;103850.97;5290056;28;20481;-68
2022/03/18 01:52:01;;;;;;;10.48;4.97;;;;;;;1.95;98.52;103847.50;5290680;28;20028;-67
2022/03/18 01:54:44;;;;;;;9.65;5.00;;;;;;;1.95;99.55;103843.19;5288222;28;20028;-68
2022/03/18 01:57:19;;;;;;;12.23;5.85;;;;;;;1.97;98.94;103848.38;5285464;28;20501;-68
2022/03/18 01:59:51;;;;;;;12.60;5.70;;;;;;;1.94;98.01;103840.63;5284934;28;20036;-68
2022/03/18 02:02:23;;;;;;;15.63;6.50;;;;;;;1.93;98.50;103844.03;5290850;28;20473;-67
2022/03/18 02:04:55;;;;;;;14.50;6.28;;;;;;;1.91;100.00;103845.78;5291077;28;20034;-68
2022/03/18 02:07:27;;;;;;;12.57;5.65;;;;;;;1.89;100.00;103842.31;5287354;28;20576;-68
2022/03/18 02:09:58;;;;;;;8.38;5.90;;;;;;;1.91;100.00;103856.13;5287355;28;20047;-68
2022/03/18 02:12:30;;;;;;;11.05;5.60;;;;;;;1.91;100.00;103857.00;5285886;28;20203;-67
2022/03/18 02:15:01;;;;;;;11.02;5.78;;;;;;;1.95;100.00;103860.44;5285390;28;20552;-68
2022/03/18 02:17:37;;;;;;;9.95;5.10;;;;;;;2.02;100.00;103863.88;5290491;28;20539;-67
2022/03/18 02:20:08;;;;;;;10.38;5.28;;;;;;;1.98;100.00;103868.19;5289101;28;20043;-67
2022/03/18 02:22:41;;;;;;;9.98;5.63;;;;;;;1.88;100.00;103863.88;5287101;28;20020;-68
2022/03/18 02:25:12;;;;;;;13.82;5.40;;;;;;;1.83;99.50;103865.63;5285792;28;20020;-67
2022/03/18 02:27:58;;;;;;;9.75;5.10;;;;;;;1.95;99.76;103866.47;5288172;28;20051;-68
2022/03/18 02:30:33;;;;;;;10.82;5.53;;;;;;;1.69;99.14;103865.59;5284906;28;20359;-65
2022/03/18 02:33:04;;;;;;;11.63;5.60;;;;;;;1.71;100.00;103858.72;5289409;28;20032;-67
2022/03/18 02:35:36;;;;;;;6.97;4.97;;;;;;;1.68;100.00;103859.56;5288297;28;20028;-68
2022/03/18 02:38:07;;;;;;;11.13;5.28;;;;;;;1.72;100.00;103875.94;5288034;28;20020;-68
2022/03/18 02:40:39;;;;;;;10.68;5.35;;;;;;;1.72;100.00;103877.66;5280613;28;20025;-67
2022/03/18 02:43:10;;;;;;;10.90;5.30;;;;;;;1.67;100.00;103873.34;5286541;28;20021;-66
2022/03/18 02:45:41;;;;;;;9.57;6.00;;;;;;;1.67;100.00;103872.50;5287927;28;20389;-67
2022/03/18 02:48:13;;;;;;;13.32;5.90;;;;;;;1.66;100.00;103881.09;5291420;28;20048;-68
2022/03/18 02:50:44;;;;;;;12.75;5.40;;;;;;;1.64;100.00;103878.53;5286513;28;20103;-68
2022/03/18 02:53:15;;;;;;;9.27;5.35;;;;;;;1.70;100.00;103873.38;5282983;28;20028;-67
2022/03/18 02:55:47;;;;;;;11.23;5.25;;;;;;;1.64;100.00;103875.06;5288685;28;20060;-67
2022/03/18 02:58:18;;;;;;;12.40;5.82;;;;;;;1.57;100.00;103870.75;5285541;28;20055;-67
2022/03/18 03:00:50;;;;;;;11.60;5.47;;;;;;;1.56;100.00;103887.13;5283171;28;20031;-67
2022/03/18 03:03:22;;;;;;;8.05;5.53;;;;;;;1.52;100.00;103896.59;5286528;28;20078;-66
2022/03/18 03:08:43;;;;;;;13.63;5.35;;;;;;;1.59;100.00;103895.75;5287017;28;20024;-68
2022/03/18 03:11:15;;;;;;;10.88;5.57;;;;;;;1.53;99.97;103898.31;5287002;28;20032;-67
2022/03/18 03:13:46;;;;;;;10.75;4.80;;;;;;;1.55;100.00;103895.72;5284808;28;20548;-68
2022/03/18 03:16:21;;;;;;;9.52;5.10;;;;;;;1.45;100.00;103898.28;5285569;28;20024;-67
2022/03/18 03:18:53;;;;;;;11.77;5.22;;;;;;;1.40;100.00;103905.19;5288228;28;20077;-68
2022/03/18 03:21:24;;;;;;;10.00;5.47;;;;;;;1.31;100.00;103897.38;5287972;28;20477;-67
2022/03/18 03:23:56;;;;;;;10.00;5.18;;;;;;;1.27;100.00;103912.88;5283827;28;20028;-69
2022/03/18 03:26:28;;;;;;;9.90;5.43;;;;;;;1.23;100.00;103905.97;5288002;28;20100;-67
2022/03/18 03:29:00;;;;;;;15.95;5.80;;;;;;;1.23;100.00;103914.59;5287064;28;20035;-68
2022/03/18 03:31:31;;;;;;;8.85;5.30;;;;;;;1.21;100.00;103916.28;5286084;28;20484;-67
2022/03/18 03:34:02;;;;;;;8.27;4.93;;;;;;;1.22;100.00;103918.03;5287112;28;20031;-67
2022/03/18 03:36:34;;;;;;;11.48;5.85;;;;;;;1.17;100.00;103914.53;5284038;28;20073;-67
2022/03/18 03:39:05;;;;;;;8.63;5.32;;;;;;;1.15;100.00;103909.38;5285605;28;20032;-70
2022/03/18 03:41:36;;;;;;;9.55;5.65;;;;;;;1.15;100.00;103911.97;5283589;28;20029;-70
2022/03/18 03:44:07;;;;;;;8.85;5.75;;;;;;;1.12;100.00;103919.69;5287682;28;20036;-69
2022/03/18 03:46:39;;;;;;;8.05;5.03;;;;;;;1.14;100.00;103927.47;5284601;28;20036;-69
2022/03/18 03:49:10;;;;;;;8.82;5.35;;;;;;;1.08;100.00;103930.88;5285773;28;20031;-69
2022/03/18 03:51:41;;;;;;;9.80;5.72;;;;;;;1.07;100.00;103931.75;5283617;28;20050;-72
2022/03/18 03:54:12;;;;;;;10.75;4.95;;;;;;;1.00;100.00;103919.66;5286767;28;20036;-70
2022/03/18 03:56:44;;;;;;;11.05;4.85;;;;;;;1.01;100.00;103931.69;5285978;28;20040;-69
2022/03/18 03:59:15;;;;;;;10.65;5.18;;;;;;;1.03;100.00;103932.59;5285509;28;20041;-71
2022/03/18 04:01:46;;;;;;;7.55;4.80;;;;;;;1.03;100.00;103934.31;5283090;28;20457;-70
2022/03/18 04:04:18;;;;;;;9.15;4.82;;;;;;;1.03;100.00;103942.06;5284135;28;20409;-71
2022/03/18 04:06:49;;;;;;;11.95;5.88;;;;;;;0.97;100.00;103959.22;5287978;28;20019;-69
2022/03/18 04:09:21;;;;;;;11.95;5.68;;;;;;;1.01;100.00;103961.81;5287709;28;20059;-71
2022/03/18 04:11:53;;;;;;;9.48;5.43;;;;;;;0.91;100.00;103955.72;5286162;28;20039;-71
2022/03/18 04:14:25;;;;;;;13.17;5.73;;;;;;;0.87;100.00;103953.97;5283209;28;20031;-69
2022/03/18 04:16:56;;;;;;;11.60;4.90;;;;;;;0.82;100.00;103956.53;5288596;28;20665;-71
2022/03/18 04:19:28;;;;;;;8.93;4.80;;;;;;;0.79;100.00;103955.66;5288890;28;20032;-69
2022/03/18 04:21:59;;;;;;;8.73;4.78;;;;;;;0.85;100.00;103968.63;5285110;28;20039;-69
2022/03/18 04:24:31;;;;;;;9.98;5.25;;;;;;;0.80;100.00;103962.56;5288139;28;20047;-70
2022/03/18 04:27:02;;;;;;;11.82;5.45;;;;;;;0.73;100.00;103972.84;5285746;28;20020;-69
2022/03/18 04:29:33;;;;;;;11.90;5.45;;;;;;;0.71;100.00;103978.84;5284038;28;20068;-71
2022/03/18 04:32:05;;;;;;;9.85;5.15;;;;;;;0.68;100.00;103976.22;5288214;28;20462;-69
2022/03/18 04:34:36;;;;;;;10.77;5.15;;;;;;;0.70;100.00;103983.13;5286666;28;20028;-69
2022/03/18 04:37:07;;;;;;;9.20;4.85;;;;;;;0.70;100.00;103984.84;5286479;28;20140;-70
2022/03/18 04:39:39;;;;;;;10.40;5.22;;;;;;;0.71;100.00;103989.16;5281748;28;20450;-70
2022/03/18 04:42:10;;;;;;;10.82;4.88;;;;;;;0.71;100.00;103994.31;5284641;28;20439;-69
2022/03/18 04:44:41;;;;;;;8.18;5.03;;;;;;;0.66;100.00;103990.84;5284772;28;20046;-69
2022/03/18 04:47:13;;;;;;;16.05;5.45;;;;;;;0.68;100.00;103989.13;5283511;28;20016;-69
2022/03/18 04:49:44;;;;;;;9.90;5.63;;;;;;;0.67;100.00;103987.41;5284710;28;20020;-70
2022/03/18 04:52:15;;;;;;;12.55;5.93;;;;;;;0.70;100.00;103977.97;5286285;28;20527;-69
2022/03/18 04:54:47;;;;;;;16.67;6.47;;;;;;;0.65;100.00;103978.81;5286528;28;20061;-69
2022/03/18 04:57:18;;;;;;;16.20;5.85;;;;;;;0.68;100.00;103990.03;5286702;28;20107;-70
2022/03/18 04:59:56;;;;;;;16.42;5.57;;;;;;;0.66;100.00;103994.28;5288165;28;20029;-69
2022/03/18 05:02:28;;;;;;;13.93;6.30;;;;;;;0.67;100.00;103987.41;5278966;28;20032;-69
2022/03/18 05:04:59;;;;;;;20.13;5.90;;;;;;;0.61;100.00;104000.28;5281909;28;20138;-70
2022/03/18 05:07:30;;;;;;;14.88;5.40;;;;;;;0.66;100.00;103998.59;5280867;28;20025;-69
2022/03/18 05:10:02;;;;;;;14.30;6.40;;;;;;;0.62;100.00;104005.44;5299419;28;20496;-69
2022/03/18 05:12:34;;;;;;;12.98;6.40;;;;;;;0.58;100.00;104008.84;5284392;28;20027;-72
2022/03/18 05:15:06;;;;;;;17.45;5.82;;;;;;;0.60;100.00;104014.88;5285420;28;20029;-70
2022/03/18 05:17:39;;;;;;;10.70;5.53;;;;;;;0.65;100.00;104020.09;5284703;28;20483;-67
2022/03/18 05:20:11;;;;;;;23.05;6.90;;;;;;;0.68;100.00;104021.00;5287156;28;20033;-67
2022/03/18 05:22:42;;;;;;;26.73;6.82;;;;;;;0.62;100.00;104030.38;5283142;28;20020;-67
2022/03/18 05:25:14;;;;;;;19.30;6.55;;;;;;;0.60;100.00;104022.63;5284800;28;20054;-67
2022/03/18 05:27:45;;;;;;;15.73;6.32;;;;;;;0.57;100.00;104017.47;5286350;28;20054;-69
2022/03/18 05:30:17;;;;;;;17.90;6.15;;;;;;;0.62;100.00;104026.09;5280171;28;20028;-67
2022/03/18 05:32:48;;;;;;;16.88;5.97;;;;;;;0.63;100.00;104029.53;5282721;28;20093;-68
2022/03/18 05:35:20;;;;;;;18.58;6.57;;;;;;;0.64;100.00;104034.69;5280899;28;20032;-68
2022/03/18 05:37:51;;;;;;;20.27;7.18;;;;;;;0.54;100.00;104030.31;5285112;28;20504;-68
2022/03/18 05:40:23;;;;;;;19.13;6.88;;;;;;;0.56;100.00;104031.19;5286344;28;20031;-68
2022/03/18 05:42:54;;;;;;;19.33;7.07;;;;;;;0.60;100.00;104037.25;5285249;28;20512;-68
2022/03/18 05:45:25;;;;;;;9.95;5.30;;;;;;;0.61;100.00;104034.69;5282515;28;20029;-67
2022/03/18 05:47:56;;;;;;;14.30;6.25;;;;;;;0.58;100.00;104032.06;5282418;28;20029;-68
2022/03/18 05:50:29;;;;;;;18.63;6.82;;;;;;;0.63;100.00;104029.53;5285317;28;20016;-67
2022/03/18 05:53:00;;;;;;;12.13;6.13;;;;;;;0.63;100.00;104025.22;5284497;28;20450;-68
2022/03/18 05:58:23;;;;;;;12.85;6.68;;;;;;;0.68;100.00;104026.16;5283840;28;20410;-67
2022/03/18 06:00:55;;;;;;;12.98;6.90;;;;;;;0.70;100.00;104036.47;5284336;28;20020;-67
2022/03/18 06:03:27;;;;;;;14.10;6.18;;;;;;;0.72;100.00;104042.53;5284124;28;20047;-68
2022/03/18 06:05:59;;;;;;;12.90;6.70;;;;;;;0.81;100.00;104052.91;5285407;28;20074;-67
2022/03/18 06:14:10;;;;;;;13.60;5.82;;;;;;;0.82;100.00;104053.75;5284019;28;20044;-67
2022/03/18 06:16:42;;;;;;;14.85;6.95;;;;;;;0.79;100.00;104059.75;5288341;28;20020;-68
2022/03/18 06:19:15;;;;;;;24.23;7.13;;;;;;;0.83;100.00;104064.09;5283760;28;20024;-67
2022/03/18 06:21:47;;;;;;;16.77;6.13;;;;;;;0.83;100.00;104074.41;5287120;28;20016;-67
2022/03/18 06:24:20;;;;;;;17.13;6.60;;;;;;;0.92;100.00;104076.22;5283660;28;20389;-68
2022/03/18 06:26:52;;;;;;;13.05;6.25;;;;;;;0.89;100.00;104078.78;5289012;28;20033;-68
2022/03/18 06:29:24;;;;;;;12.15;6.15;;;;;;;0.86;100.00;104089.06;5289338;28;20507;-68
2022/03/18 06:31:56;;;;;;;23.58;7.22;;;;;;;0.85;100.00;104087.34;5285993;28;20027;-69
2022/03/18 06:34:28;;;;;;;13.48;6.07;;;;;;;0.89;100.00;104086.50;5286231;28;20519;-68
2022/03/18 06:37:00;;;;;;;13.10;5.75;;;;;;;0.91;100.00;104085.69;5286009;28;20033;-68
2022/03/18 06:39:31;;;;;;;13.90;6.57;;;;;;;0.91;100.00;104083.09;5286349;28;20027;-68
2022/03/18 06:42:04;;;;;;;16.25;6.22;;;;;;;0.94;100.00;104084.81;5288197;28;20035;-70
2022/03/18 06:44:36;;;;;;;10.68;6.28;;;;;;;1.01;100.00;104086.59;5284176;28;20461;-70
2022/03/18 06:47:07;;;;;;;12.52;7.15;;;;;;;1.01;100.00;104094.34;5285345;28;20023;-70
2022/03/18 06:49:38;;;;;;;13.63;6.90;;;;;;;1.03;100.00;104090.06;5283652;28;20465;-71
2022/03/18 06:52:09;;;;;;;11.32;6.72;;;;;;;1.13;100.00;104102.16;5288380;28;20024;-71
2022/03/18 06:54:41;;;;;;;14.23;7.80;;;;;;;1.17;100.00;104109.09;5285942;28;20059;-70
2022/03/18 06:57:12;;;;;;;12.43;6.95;;;;;;;1.20;100.00;104108.25;5286756;28;20388;-67
2022/03/18 06:59:44;;;;;;;14.18;6.30;;;;;;;1.27;100.00;104110.03;5284503;28;20461;-67
2022/03/18 07:02:15;;;;;;;21.33;7.35;;;;;;;1.29;100.00;104110.91;5286628;28;20027;-67
2022/03/18 07:04:46;;;;;;;18.27;7.50;;;;;;;1.40;100.00;104111.84;5289608;28;20025;-67
2022/03/18 07:07:18;;;;;;;14.23;7.20;;;;;;;1.48;100.00;104108.41;5283694;28;20115;-67
2022/03/18 07:09:49;;;;;;;14.68;8.30;;;;;;;1.54;100.00;104111.91;5290082;28;20077;-68
2022/03/18 07:12:20;;;;;;;13.43;7.80;;;;;;;1.69;100.00;104117.16;5284696;28;20030;-68
2022/03/18 07:14:51;;;;;;;16.70;7.47;;;;;;;1.73;100.00;104114.59;5281597;28;20082;-68
2022/03/18 07:20:13;;;;;;;12.40;7.45;;;;;;;2.01;100.00;104118.16;5285538;28;20131;-68
2022/03/18 07:22:45;;;;;;;14.77;8.77;;;;;;;2.08;100.00;104118.16;5283794;28;20111;-67
2022/03/18 07:25:16;;;;;;;14.73;8.18;;;;;;;2.26;100.00;104122.53;5284124;28;21766;-67
2022/03/18 07:27:47;;;;;;;17.38;8.07;;;;;;;2.40;100.00;104126.03;5286208;28;20103;-67
2022/03/18 07:30:19;;;;;;;19.75;8.25;;;;;;;2.44;100.00;104121.72;5285109;28;20016;-68
2022/03/18 07:32:51;;;;;;;16.70;9.07;;;;;;;2.72;100.00;104124.34;5286227;28;20032;-68
2022/03/18 07:35:22;;;;;;;22.65;9.63;;;;;;;3.01;100.00;104127.81;5286469;28;20074;-67
2022/03/18 07:37:54;;;;;;;21.40;8.35;;;;;;;3.23;100.00;104128.66;5274075;28;20488;-67
2022/03/18 07:40:25;;;;;;;16.48;9.00;;;;;;;3.57;100.00;104137.25;5282978;28;20093;-68
2022/03/18 07:42:58;;;;;;;19.90;8.90;;;;;;;3.75;100.00;104143.22;5286374;28;20024;-68
2022/03/18 07:45:31;;;;;;;19.65;8.50;;;;;;;3.82;100.00;104150.97;5284981;28;20044;-68
2022/03/18 07:48:05;;;;;;;17.42;7.97;;;;;;;4.05;100.00;104150.91;5285483;28;20033;-68
2022/03/18 07:50:39;;;;;;;15.60;7.57;;;;;;;4.09;100.00;104162.13;5287683;28;20110;-68
2022/03/18 07:53:10;;;;;;;12.23;7.95;;;;;;;4.24;100.00;104159.44;5287031;28;20020;-66
2022/03/18 07:55:41;;;;;;;16.20;8.00;;;;;;;4.50;100.00;104156.72;5285225;28;20112;-68
2022/03/18 07:58:13;;;;;;;12.52;6.63;;;;;;;4.85;100.00;104160.84;5281633;28;20090;-69
2022/03/18 08:00:45;;;;;;;12.55;6.88;;;;;;;5.00;100.00;104165.00;5282800;28;20028;-69
2022/03/18 08:03:17;;;;;;;14.13;7.95;;;;;;;5.03;100.00;104171.06;5281448;28;20036;-69
2022/03/18 08:05:48;;;;;;;20.23;7.18;;;;;;;5.34;100.00;104165.59;5284636;28;20030;-69
2022/03/18 08:08:20;;;;;;;16.75;7.32;;;;;;;5.58;100.00;104167.94;5281457;28;20073;-69
2022/03/18 08:10:52;;;;;;;18.42;7.47;;;;;;;5.79;100.00;104177.25;5280905;28;20565;-70
2022/03/18 08:13:24;;;;;;;14.90;7.43;;;;;;;5.90;100.00;104177.13;5282458;28;20028;-71
2022/03/18 08:15:55;;;;;;;16.98;6.75;;;;;;;6.15;100.00;104177.75;5282667;28;20028;-69
2022/03/18 08:18:27;;;;;;;16.35;6.78;;;;;;;6.15;100.00;104177.75;5282475;28;20064;-68
2022/03/18 08:20:58;;;;;;;21.33;7.72;;;;;;;6.29;100.00;104183.63;5275013;28;20525;-68
2022/03/18 08:23:32;;;;;;;15.77;7.25;;;;;;;6.46;100.00;104188.59;5274503;28;20036;-68
2022/03/18 08:26:03;;;;;;;16.73;6.82;;;;;;;6.57;100.00;104183.25;5278886;28;20393;-69
2022/03/18 08:28:34;;;;;;;18.38;6.50;;;;;;;6.65;100.00;104188.34;5274090;28;20032;-68
2022/03/18 08:31:06;;;;;;;18.70;6.25;;;;;;;6.80;100.00;104183.75;5282043;28;20032;-69
2022/03/18 08:33:37;;;;;;;18.20;6.43;;;;;;;6.85;100.00;104188.03;5284609;28;20031;-69
2022/03/18 08:36:08;;;;;;;16.33;6.03;;;;;;;6.97;98.02;104195.66;5282159;28;20016;-70
2022/03/18 08:38:40;;;;;;;12.20;5.75;;;;;;;6.95;96.80;104198.28;5278785;28;20060;-70
2022/03/18 08:41:12;;;;;;;16.55;6.15;;;;;;;7.19;94.37;104199.63;5281857;28;20086;-69
2022/03/18 08:43:43;;;;;;;12.65;5.10;;;;;;;7.40;90.57;104200.16;5282879;28;20025;-70
2022/03/18 08:46:15;;;;;;;13.68;5.30;;;;;;;7.50;91.45;104204.31;5280793;28;20496;-69
2022/03/18 08:48:46;;;;;;;10.75;5.38;;;;;;;7.55;91.56;104210.34;5281250;28;20024;-69
2022/03/18 08:51:17;;;;;;;11.15;6.07;;;;;;;7.93;87.01;104213.97;5283298;28;20025;-69
2022/03/18 08:53:48;;;;;;;10.80;5.00;;;;;;;7.96;83.26;104211.31;5263311;28;20024;-69
2022/03/18 08:56:20;;;;;;;12.23;5.53;;;;;;;8.15;81.98;104211.78;5269888;28;20547;-70
2022/03/18 08:58:51;;;;;;;13.70;5.05;;;;;;;8.51;80.08;104231.06;5270789;28;20485;-70
2022/03/18 09:01:23;;;;;;;9.48;4.53;;;;;;;8.61;80.93;104227.38;5266752;28;20028;-69
2022/03/18 09:03:54;;;;;;;7.97;4.22;;;;;;;8.57;79.97;104237.94;5267791;28;20039;-69
2022/03/18 09:06:25;;;;;;;10.65;5.20;;;;;;;8.82;77.59;104233.00;5279438;28;20024;-69
2022/03/18 09:09:02;;;;;;;9.18;4.63;;;;;;;8.88;77.73;104227.63;5279370;28;20020;-69
2022/03/18 09:11:33;;;;;;;10.85;4.63;;;;;;;9.02;72.42;104236.88;5277480;28;20402;-70
2022/03/18 09:14:05;;;;;;;9.65;3.90;;;;;;;9.21;69.58;104233.81;5280419;28;20021;-69
2022/03/18 09:16:38;;;;;;;13.75;3.95;;;;;;;9.30;68.99;104235.31;5281223;28;20023;-71
2022/03/18 09:19:09;;;;;;;10.15;3.47;;;;;;;9.29;68.78;104244.94;5278584;28;20033;-70
2022/03/18 09:21:40;;;;;;;10.32;3.63;;;;;;;9.35;69.03;104242.16;5274386;28;20492;-71
2022/03/18 09:24:12;;;;;;;8.43;4.03;;;;;;;9.55;70.55;104240.81;5277451;28;20056;-69
2022/03/18 09:26:43;;;;;;;8.85;4.22;;;;;;;9.80;67.99;104246.22;5273808;28;20062;-69
2022/03/18 09:29:14;;;;;;;8.70;3.35;;;;;;;9.82;66.56;104250.53;5277730;28;20086;-69
2022/03/18 09:31:45;;;;;;;8.18;3.80;;;;;;;9.88;65.79;104250.34;5278178;28;20030;-68
2022/03/18 09:34:17;;;;;;;8.15;3.33;;;;;;;9.90;64.76;104251.19;5272325;28;20064;-71
2022/03/18 09:36:49;;;;;;;8.10;3.28;;;;;;;10.06;64.24;104259.47;5276752;28;20187;-71
2022/03/18 09:39:21;;;;;;;9.18;3.30;;;;;;;10.21;62.40;104260.78;5276570;28;20034;-69
2022/03/18 09:41:54;;;;;;;8.18;3.67;;;;;;;10.35;64.18;104257.81;5271394;28;20086;-69
2022/03/18 09:44:38;;;;;;;13.23;3.92;;;;;;;10.57;64.35;104253.66;5270235;28;20036;-71
2022/03/18 09:47:10;;;;;;;9.18;3.78;;;;;;;10.54;61.63;104253.75;5272374;28;20427;-70
2022/03/18 09:49:45;;;;;;;9.15;3.55;;;;;;;10.70;62.86;104251.50;5281109;28;20197;-70
2022/03/18 09:52:18;;;;;;;7.32;3.47;;;;;;;10.73;60.82;104256.66;5275407;28;20482;-70
2022/03/18 09:54:49;;;;;;;8.65;3.20;;;;;;;10.92;60.40;104244.69;5281108;28;20082;-69
2022/03/18 09:57:21;;;;;;;7.40;3.08;;;;;;;11.05;58.30;104263.50;5281933;28;20119;-69
2022/03/18 09:59:52;;;;;;;7.65;3.17;;;;;;;11.22;57.79;104255.09;5283700;28;20127;-70
2022/03/18 10:02:29;;;;;;;6.78;2.50;;;;;;;11.39;53.70;104255.38;5282971;28;20036;-69
2022/03/18 10:05:02;;;;;;;7.05;2.40;;;;;;;11.37;53.55;104267.72;5285872;28;20439;-71
2022/03/18 10:07:34;;;;;;;6.35;2.50;;;;;;;11.49;55.03;104276.94;5283255;28;20020;-70
2022/03/18 10:10:14;;;;;;;4.90;2.28;;;;;;;11.64;54.15;104279.03;5284555;28;20023;-69
2022/03/18 10:12:48;;;;;;;4.65;2.13;;;;;;;11.65;54.16;104282.50;5280376;28;20035;-69
2022/03/18 10:15:22;;;;;;;5.85;2.30;;;;;;;11.75;53.18;104278.66;5287038;28;20024;-69
2022/03/18 10:17:58;;;;;;;5.60;2.60;;;;;;;12.08;53.28;104281.03;5284063;28;20039;-69
2022/03/18 10:20:29;;;;;;;6.85;2.22;;;;;;;11.98;52.14;104284.91;5283444;28;20035;-70
2022/03/18 10:23:09;;;;;;;9.57;2.63;;;;;;;12.10;55.40;104287.09;5284245;28;20040;-71
2022/03/18 10:25:53;;;;;;;7.32;2.40;;;;;;;12.00;53.37;104280.44;5282584;28;21020;-69
2022/03/18 10:28:35;;;;;;;6.70;2.30;;;;;;;12.26;53.03;104271.63;5280794;28;20032;-72
2022/03/18 10:31:20;;;;;;;5.47;2.13;;;;;;;12.50;53.66;104273.34;5282664;28;20139;-70
2022/03/18 10:37:07;;;;;;;9.50;2.55;;;;;;;12.48;53.59;104266.41;5275422;28;20068;-69
2022/03/18 10:39:41;;;;;;;7.50;2.85;;;;;;;12.43;53.10;104273.63;5273767;28;20116;-69
2022/03/18 10:42:15;;;;;;;8.25;2.72;;;;;;;12.55;51.33;104276.63;5279567;28;20473;-70
2022/03/18 10:45:00;;;;;;;8.43;2.13;;;;;;;12.64;51.06;104283.31;5278101;28;20386;-70
2022/03/18 10:47:39;;;;;;;6.20;2.30;;;;;;;12.80;51.43;104278.28;5280650;28;20039;-70
2022/03/18 10:50:11;;;;;;;7.30;2.33;;;;;;;12.86;50.89;104276.28;5278305;28;20157;-71
2022/03/18 10:52:45;;;;;;;9.00;2.40;;;;;;;13.05;49.50;104270.28;5278631;28;20036;-72
2022/03/18 10:55:23;;;;;;;9.73;2.47;;;;;;;13.29;50.18;104271.06;5279625;28;20070;-70
2022/03/18 10:58:02;;;;;;;6.88;2.33;;;;;;;13.27;49.67;104265.03;5281270;28;20038;-70
2022/03/18 11:00:35;;;;;;;6.82;2.10;;;;;;;13.12;49.07;104267.34;5283491;28;20070;-70
2022/03/18 11:03:07;;;;;;;5.72;2.10;;;;;;;13.29;48.24;104268.44;5286182;28;20020;-70
2022/03/18 11:05:41;;;;;;;6.10;2.40;;;;;;;13.43;47.64;104271.34;5287793;28;20362;-72
2022/03/18 11:08:14;;;;;;;7.18;2.33;;;;;;;13.39;47.66;104265.34;5275595;28;20036;-70
2022/03/18 11:11:15;;;;;;;5.20;2.28;;;;;;;13.48;50.00;104264.09;5281612;28;20235;-70
2022/03/18 11:13:51;;;;;;;6.50;2.60;;;;;;;13.61;48.72;104262.66;5277999;28;20115;-70
2022/03/18 11:16:28;;;;;;;7.38;2.72;;;;;;;13.59;47.44;104264.50;5285281;28;20516;-70
2022/03/18 11:19:03;;;;;;;5.60;2.30;;;;;;;13.53;49.53;104269.19;5283329;28;20525;-70
2022/03/18 11:21:38;;;;;;;6.00;2.40;;;;;;;13.73;47.60;104261.28;5285623;28;20016;-70
2022/03/18 11:24:12;;;;;;;7.25;2.45;;;;;;;13.68;48.88;104255.38;5283458;28;20024;-70
2022/03/18 11:26:48;;;;;;;8.25;2.17;;;;;;;13.93;48.08;104262.19;5284279;28;20020;-71
2022/03/18 11:29:23;;;;;;;7.95;2.70;;;;;;;13.67;48.40;104261.53;5281079;28;20089;-72
2022/03/18 11:32:09;;;;;;;6.30;2.67;;;;;;;14.11;49.09;104267.47;5285556;28;20023;-70
2022/03/18 11:34:45;;;;;;;7.28;2.38;;;;;;;13.92;47.42;104263.09;5280270;28;20035;-71
2022/03/18 11:37:18;;;;;;;6.18;2.63;;;;;;;13.93;47.95;104259.53;5279177;28;20300;-71
2022/03/18 11:39:50;;;;;;;7.00;3.00;;;;;;;13.80;47.75;104265.34;5276855;28;20316;-70
2022/03/18 11:42:22;;;;;;;8.15;2.63;;;;;;;13.88;47.32;104270.28;5279886;28;20289;-71
2022/03/18 11:44:59;;;;;;;7.28;3.25;;;;;;;14.20;47.18;104253.00;5277964;28;20381;-71
2022/03/18 11:47:33;;;;;;;7.28;2.70;;;;;;;14.32;48.76;104256.88;5280394;28;20491;-71
2022/03/18 11:50:35;;;;;;;6.28;2.33;;;;;;;14.57;48.83;104253.97;5277283;28;20051;-72
2022/03/18 11:53:10;;;;;;;5.35;2.33;;;;;;;14.39;47.12;104249.53;5274706;28;20485;-71
2022/03/18 11:55:45;;;;;;;6.88;3.03;;;;;;;14.55;47.10;104253.19;5275794;28;20486;-70
2022/03/18 11:58:30;;;;;;;9.98;3.17;;;;;;;14.58;47.35;104261.84;5280060;28;20135;-71
2022/03/18 12:01:01;;;;;;;6.82;2.80;;;;;;;14.52;46.21;104264.75;5281710;28;20016;-70
2022/03/18 12:03:36;;;;;;;6.28;2.67;;;;;;;14.64;46.91;104258.03;5281352;28;20043;-70
2022/03/18 12:06:07;;;;;;;8.25;3.42;;;;;;;14.60;45.95;104253.81;5280781;28;20025;-70
2022/03/18 12:08:54;;;;;;;9.50;3.47;;;;;;;14.64;48.36;104243.97;5279580;28;20052;-70